Estación Meteorológica Peña el Pijo (Robertgarden) [ 03/06/21 14:03:38 CET ]

Fecha Hora Presion(HPa) Temp (°C) Humedad % Rocio (°C) Viento ( m/s) Direccion Lluvia 1Hora(mm) Lluvia 24H(mm) LLuvia Total(mm)
2021-Feb-28 01:09:40 1010.300 2.1 85 -0.2 - N     89.61
2021-Feb-28 02:10:05 1010.100 2.5 85 0.2 - N     89.61
2021-Feb-28 03:09:38 1009.900 3.4 86 1.3 - N     89.61
2021-Feb-28 04:09:48 1009.500 3.8 87 1.8 - N     89.61
2021-Feb-28 05:10:19 1009.300 3.9 87 1.9 - N     89.61
2021-Feb-28 06:09:55 1009.300 3.8 88 2.0 - N     89.61
2021-Feb-28 07:10:13 1009.200 4.1 84 1.6 - N     89.61
2021-Feb-28 08:09:42 1009.500 5.0 82 2.1 - N     89.61
2021-Feb-28 09:09:39 1009.900 5.8 81 2.8 - N     89.61
2021-Feb-28 10:09:24 1010.000 6.9 76 2.9 - N     89.61
2021-Feb-28 11:09:32 1010.200 7.9 74 3.6 - N     89.61
2021-Feb-28 12:09:42 1010.000 8.4 72 3.6 - N     89.61
2021-Feb-28 13:09:45 1009.700 8.2 74 3.8 - N     89.61
2021-Feb-28 14:09:48 1009.100 8.4 74 4.0 - N     89.61
2021-Feb-28 15:09:53 1008.700 7.3 79 3.9 - N     89.61
2021-Feb-28 16:09:19 1008.400 7.4 80 4.2 - N     89.61
2021-Feb-28 17:09:18 1008.300 7.5 79 4.1 - N     89.61
2021-Feb-28 18:09:47 1008.300 7.3 78 3.7 - N     89.61
2021-Feb-28 19:09:34 1008.600 6.9 78 3.3 - N     89.61
2021-Feb-28 20:09:24 1008.600 6.6 80 3.4 - N     89.61
2021-Feb-28 21:09:33 1009.000 6.6 80 3.4 - N     89.61
2021-Feb-28 22:09:24 1009.200 6.6 80 3.4 - N     89.61
2021-Feb-28 23:09:49 1009.300 6.5 82 3.6 - N     89.61

Temperatura Máxima:    Temperatura Mínima:
Presión Máxima:1010.300 Hpa    Presión Mínima:1008.300 Hpa


Volver